sensor_id;sensor_type;location;lat;lon;timestamp;pressure;altitude;pressure_sealevel;temperature;humidity
75247;BME280;63844;50.042;19.224;2022-10-30T00:00:43;99519.02;;;11.07;84.44
75247;BME280;63844;50.042;19.224;2022-10-30T00:03:30;99520.65;;;11.12;84.57
75247;BME280;63844;50.042;19.224;2022-10-30T00:05:56;99523.00;;;11.14;84.77
75247;BME280;63844;50.042;19.224;2022-10-30T00:08:23;99526.88;;;11.15;85.96
75247;BME280;63844;50.042;19.224;2022-10-30T00:10:52;99527.63;;;11.14;84.14
75247;BME280;63844;50.042;19.224;2022-10-30T00:13:19;99526.70;;;11.09;84.89
75247;BME280;63844;50.042;19.224;2022-10-30T00:15:51;99531.28;;;11.07;84.21
75247;BME280;63844;50.042;19.224;2022-10-30T00:18:18;99537.70;;;11.03;84.17
75247;BME280;63844;50.042;19.224;2022-10-30T00:20:46;99545.73;;;10.99;84.25
75247;BME280;63844;50.042;19.224;2022-10-30T00:23:13;99554.29;;;10.94;84.74
75247;BME280;63844;50.042;19.224;2022-10-30T00:25:40;99566.05;;;10.90;85.40
75247;BME280;63844;50.042;19.224;2022-10-30T00:28:06;99574.30;;;10.86;85.35
75247;BME280;63844;50.042;19.224;2022-10-30T00:30:34;99580.00;;;10.79;85.13
75247;BME280;63844;50.042;19.224;2022-10-30T00:33:00;99582.17;;;10.69;84.73
75247;BME280;63844;50.042;19.224;2022-10-30T00:35:27;99571.11;;;10.61;84.51
75247;BME280;63844;50.042;19.224;2022-10-30T00:37:53;99558.67;;;10.59;84.32
75247;BME280;63844;50.042;19.224;2022-10-30T00:40:19;99559.92;;;10.58;84.38
75247;BME280;63844;50.042;19.224;2022-10-30T00:42:46;99562.11;;;10.57;84.64
75247;BME280;63844;50.042;19.224;2022-10-30T00:45:14;99558.73;;;10.51;84.93
75247;BME280;63844;50.042;19.224;2022-10-30T00:47:56;99561.84;;;10.46;84.95
75247;BME280;63844;50.042;19.224;2022-10-30T00:50:30;99560.95;;;10.43;84.02
75247;BME280;63844;50.042;19.224;2022-10-30T00:53:10;99565.86;;;10.38;84.23
75247;BME280;63844;50.042;19.224;2022-10-30T00:55:50;99568.44;;;10.36;84.47
75247;BME280;63844;50.042;19.224;2022-10-30T00:58:22;99567.49;;;10.37;85.14
75247;BME280;63844;50.042;19.224;2022-10-30T01:00:52;99562.88;;;10.34;84.67
75247;BME280;63844;50.042;19.224;2022-10-30T01:03:20;99564.56;;;10.32;84.54
75247;BME280;63844;50.042;19.224;2022-10-30T01:05:54;99566.16;;;10.29;84.56
75247;BME280;63844;50.042;19.224;2022-10-30T01:08:22;99562.65;;;10.22;84.63
75247;BME280;63844;50.042;19.224;2022-10-30T01:10:49;99558.91;;;10.16;84.92
75247;BME280;63844;50.042;19.224;2022-10-30T01:13:16;99556.45;;;10.12;84.75
75247;BME280;63844;50.042;19.224;2022-10-30T01:16:12;99553.30;;;10.08;84.81
75247;BME280;63844;50.042;19.224;2022-10-30T01:19:20;99544.24;;;10.02;84.26
75247;BME280;63844;50.042;19.224;2022-10-30T01:22:01;99535.79;;;10.02;84.55
75247;BME280;63844;50.042;19.224;2022-10-30T01:24:40;99528.51;;;10.06;84.70
75247;BME280;63844;50.042;19.224;2022-10-30T01:27:17;99529.27;;;10.08;85.87
75247;BME280;63844;50.042;19.224;2022-10-30T01:29:55;99536.77;;;10.13;85.28
75247;BME280;63844;50.042;19.224;2022-10-30T01:32:44;99541.59;;;10.16;85.50
75247;BME280;63844;50.042;19.224;2022-10-30T01:35:50;99547.46;;;10.11;85.75
75247;BME280;63844;50.042;19.224;2022-10-30T01:38:24;99543.45;;;10.07;85.37
75247;BME280;63844;50.042;19.224;2022-10-30T01:40:53;99541.55;;;10.00;85.30
75247;BME280;63844;50.042;19.224;2022-10-30T01:43:19;99539.77;;;9.94;85.67
75247;BME280;63844;50.042;19.224;2022-10-30T01:46:18;99533.09;;;9.93;85.08
75247;BME280;63844;50.042;19.224;2022-10-30T01:51:50;99533.35;;;9.92;87.15
75247;BME280;63844;50.042;19.224;2022-10-30T01:54:35;99534.14;;;9.97;87.81
75247;BME280;63844;50.042;19.224;2022-10-30T01:57:28;99534.26;;;10.04;87.45
75247;BME280;63844;50.042;19.224;2022-10-30T02:00:06;99535.61;;;10.12;86.58
75247;BME280;63844;50.042;19.224;2022-10-30T02:02:33;99534.90;;;10.18;87.10
75247;BME280;63844;50.042;19.224;2022-10-30T02:05:00;99538.70;;;10.17;86.72
75247;BME280;63844;50.042;19.224;2022-10-30T02:07:27;99542.10;;;10.16;86.39
75247;BME280;63844;50.042;19.224;2022-10-30T02:09:54;99530.05;;;10.17;86.44
75247;BME280;63844;50.042;19.224;2022-10-30T02:12:21;99526.77;;;10.11;85.71
75247;BME280;63844;50.042;19.224;2022-10-30T02:14:53;99533.07;;;10.03;85.70
75247;BME280;63844;50.042;19.224;2022-10-30T02:17:21;99541.52;;;9.97;85.86
75247;BME280;63844;50.042;19.224;2022-10-30T02:19:47;99546.64;;;9.95;86.36
75247;BME280;63844;50.042;19.224;2022-10-30T02:22:14;99546.94;;;9.93;86.71
75247;BME280;63844;50.042;19.224;2022-10-30T02:24:42;99546.00;;;9.90;86.89
75247;BME280;63844;50.042;19.224;2022-10-30T02:27:08;99555.21;;;9.86;86.14
75247;BME280;63844;50.042;19.224;2022-10-30T02:29:35;99554.25;;;9.84;86.00
75247;BME280;63844;50.042;19.224;2022-10-30T02:32:01;99545.10;;;9.80;85.97
75247;BME280;63844;50.042;19.224;2022-10-30T02:34:28;99541.70;;;9.75;85.78
75247;BME280;63844;50.042;19.224;2022-10-30T02:36:54;99539.00;;;9.72;85.37
75247;BME280;63844;50.042;19.224;2022-10-30T02:39:21;99541.90;;;9.68;85.28
75247;BME280;63844;50.042;19.224;2022-10-30T02:41:47;99544.55;;;9.60;85.06
75247;BME280;63844;50.042;19.224;2022-10-30T02:44:14;99544.46;;;9.56;84.86
75247;BME280;63844;50.042;19.224;2022-10-30T02:46:40;99545.71;;;9.49;84.87
75247;BME280;63844;50.042;19.224;2022-10-30T02:49:07;99544.38;;;9.41;85.51
75247;BME280;63844;50.042;19.224;2022-10-30T02:51:33;99542.83;;;9.33;84.80
75247;BME280;63844;50.042;19.224;2022-10-30T02:53:59;99544.27;;;9.26;84.58
75247;BME280;63844;50.042;19.224;2022-10-30T02:56:26;99541.41;;;9.23;84.70
75247;BME280;63844;50.042;19.224;2022-10-30T02:58:54;99534.31;;;9.20;85.12
75247;BME280;63844;50.042;19.224;2022-10-30T03:01:21;99536.11;;;9.16;85.03
75247;BME280;63844;50.042;19.224;2022-10-30T03:03:47;99533.89;;;9.15;85.82
75247;BME280;63844;50.042;19.224;2022-10-30T03:06:15;99530.07;;;9.17;85.20
75247;BME280;63844;50.042;19.224;2022-10-30T03:08:42;99527.71;;;9.15;85.49
75247;BME280;63844;50.042;19.224;2022-10-30T03:11:12;99526.52;;;9.11;85.15
75247;BME280;63844;50.042;19.224;2022-10-30T03:13:41;99534.33;;;9.06;84.94
75247;BME280;63844;50.042;19.224;2022-10-30T03:16:10;99532.45;;;8.99;85.35
75247;BME280;63844;50.042;19.224;2022-10-30T03:18:37;99534.05;;;8.94;85.46
75247;BME280;63844;50.042;19.224;2022-10-30T03:21:06;99538.94;;;8.92;84.89
75247;BME280;63844;50.042;19.224;2022-10-30T03:23:33;99544.74;;;8.82;84.90
75247;BME280;63844;50.042;19.224;2022-10-30T03:26:00;99542.94;;;8.72;85.90
75247;BME280;63844;50.042;19.224;2022-10-30T03:28:28;99540.08;;;8.69;85.19
75247;BME280;63844;50.042;19.224;2022-10-30T03:31:06;99544.92;;;8.64;85.48
75247;BME280;63844;50.042;19.224;2022-10-30T03:33:33;99540.15;;;8.64;85.56
75247;BME280;63844;50.042;19.224;2022-10-30T03:36:00;99539.02;;;8.66;85.60
75247;BME280;63844;50.042;19.224;2022-10-30T03:38:27;99541.88;;;8.65;85.77
75247;BME280;63844;50.042;19.224;2022-10-30T03:40:53;99552.81;;;8.61;85.59
75247;BME280;63844;50.042;19.224;2022-10-30T03:43:20;99557.50;;;8.56;85.66
75247;BME280;63844;50.042;19.224;2022-10-30T03:45:51;99557.34;;;8.52;85.44
75247;BME280;63844;50.042;19.224;2022-10-30T03:48:19;99562.41;;;8.49;85.51
75247;BME280;63844;50.042;19.224;2022-10-30T03:50:46;99555.62;;;8.47;85.55
75247;BME280;63844;50.042;19.224;2022-10-30T03:53:13;99555.98;;;8.43;85.28
75247;BME280;63844;50.042;19.224;2022-10-30T03:55:40;99557.05;;;8.40;85.11
75247;BME280;63844;50.042;19.224;2022-10-30T03:58:07;99564.34;;;8.38;85.25
75247;BME280;63844;50.042;19.224;2022-10-30T04:00:34;99571.38;;;8.35;84.64
75247;BME280;63844;50.042;19.224;2022-10-30T04:03:05;99566.17;;;8.32;84.74
75247;BME280;63844;50.042;19.224;2022-10-30T04:05:32;99558.69;;;8.30;84.82
75247;BME280;63844;50.042;19.224;2022-10-30T04:08:02;99548.08;;;8.27;85.04
75247;BME280;63844;50.042;19.224;2022-10-30T04:10:29;99535.67;;;8.28;85.55
75247;BME280;63844;50.042;19.224;2022-10-30T04:13:00;99531.33;;;8.31;85.27
75247;BME280;63844;50.042;19.224;2022-10-30T04:15:27;99528.84;;;8.35;85.08
75247;BME280;63844;50.042;19.224;2022-10-30T04:17:53;99527.31;;;8.38;85.32
75247;BME280;63844;50.042;19.224;2022-10-30T04:20:21;99528.05;;;8.37;85.30
75247;BME280;63844;50.042;19.224;2022-10-30T04:22:48;99529.88;;;8.36;85.35
75247;BME280;63844;50.042;19.224;2022-10-30T04:25:14;99524.11;;;8.39;85.14
75247;BME280;63844;50.042;19.224;2022-10-30T04:27:42;99522.55;;;8.38;85.11
75247;BME280;63844;50.042;19.224;2022-10-30T04:30:10;99521.29;;;8.38;85.04
75247;BME280;63844;50.042;19.224;2022-10-30T04:32:47;99520.91;;;8.35;84.68
75247;BME280;63844;50.042;19.224;2022-10-30T04:35:15;99523.45;;;8.30;84.93
75247;BME280;63844;50.042;19.224;2022-10-30T04:37:42;99521.79;;;8.24;85.31
75247;BME280;63844;50.042;19.224;2022-10-30T04:40:09;99525.10;;;8.21;84.84
75247;BME280;63844;50.042;19.224;2022-10-30T04:42:35;99524.86;;;8.19;85.25
75247;BME280;63844;50.042;19.224;2022-10-30T04:45:02;99526.35;;;8.21;85.34
75247;BME280;63844;50.042;19.224;2022-10-30T04:47:28;99533.24;;;8.24;85.24
75247;BME280;63844;50.042;19.224;2022-10-30T04:49:55;99537.29;;;8.24;85.32
75247;BME280;63844;50.042;19.224;2022-10-30T04:52:22;99543.39;;;8.22;85.26
75247;BME280;63844;50.042;19.224;2022-10-30T04:54:48;99545.77;;;8.17;85.20
75247;BME280;63844;50.042;19.224;2022-10-30T04:57:14;99546.48;;;8.12;85.04
75247;BME280;63844;50.042;19.224;2022-10-30T04:59:41;99546.88;;;8.08;84.87
75247;BME280;63844;50.042;19.224;2022-10-30T05:02:07;99546.14;;;8.09;84.85
75247;BME280;63844;50.042;19.224;2022-10-30T05:04:33;99544.20;;;8.05;84.70
75247;BME280;63844;50.042;19.224;2022-10-30T05:07:00;99544.83;;;8.03;84.70
75247;BME280;63844;50.042;19.224;2022-10-30T05:09:29;99547.19;;;8.01;84.63
75247;BME280;63844;50.042;19.224;2022-10-30T05:11:55;99548.50;;;7.99;84.63
75247;BME280;63844;50.042;19.224;2022-10-30T05:14:21;99547.67;;;7.95;84.60
75247;BME280;63844;50.042;19.224;2022-10-30T05:16:48;99550.51;;;7.91;85.00
75247;BME280;63844;50.042;19.224;2022-10-30T05:19:14;99551.05;;;7.90;85.23
75247;BME280;63844;50.042;19.224;2022-10-30T05:21:41;99548.21;;;7.91;85.16
75247;BME280;63844;50.042;19.224;2022-10-30T05:24:07;99547.05;;;7.89;85.40
75247;BME280;63844;50.042;19.224;2022-10-30T05:26:33;99545.08;;;7.94;85.31
75247;BME280;63844;50.042;19.224;2022-10-30T05:29:00;99546.29;;;7.98;85.52
75247;BME280;63844;50.042;19.224;2022-10-30T05:31:26;99548.47;;;8.01;85.35
75247;BME280;63844;50.042;19.224;2022-10-30T05:33:52;99549.59;;;8.03;85.18
75247;BME280;63844;50.042;19.224;2022-10-30T05:36:18;99556.05;;;8.00;85.35
75247;BME280;63844;50.042;19.224;2022-10-30T05:38:45;99557.80;;;8.01;85.05
75247;BME280;63844;50.042;19.224;2022-10-30T05:41:11;99558.95;;;7.98;84.67
75247;BME280;63844;50.042;19.224;2022-10-30T05:43:38;99562.14;;;7.98;85.25
75247;BME280;63844;50.042;19.224;2022-10-30T05:46:04;99557.77;;;7.97;85.69
75247;BME280;63844;50.042;19.224;2022-10-30T05:48:30;99551.73;;;7.99;84.87
75247;BME280;63844;50.042;19.224;2022-10-30T05:50:57;99540.43;;;8.03;85.20
75247;BME280;63844;50.042;19.224;2022-10-30T05:53:23;99537.27;;;8.06;85.31
75247;BME280;63844;50.042;19.224;2022-10-30T05:55:50;99541.27;;;8.15;85.50
75247;BME280;63844;50.042;19.224;2022-10-30T05:58:16;99545.63;;;8.23;86.09
75247;BME280;63844;50.042;19.224;2022-10-30T06:00:42;99544.41;;;8.30;85.61
75247;BME280;63844;50.042;19.224;2022-10-30T06:03:11;99547.21;;;8.35;85.79
75247;BME280;63844;50.042;19.224;2022-10-30T06:05:38;99544.19;;;8.43;85.78
75247;BME280;63844;50.042;19.224;2022-10-30T06:08:06;99547.69;;;8.47;85.31
75247;BME280;63844;50.042;19.224;2022-10-30T06:10:33;99549.21;;;8.52;85.25
75247;BME280;63844;50.042;19.224;2022-10-30T06:13:00;99546.59;;;8.51;85.03
75247;BME280;63844;50.042;19.224;2022-10-30T06:15:28;99545.83;;;8.53;84.97
75247;BME280;63844;50.042;19.224;2022-10-30T06:17:56;99551.31;;;8.56;84.90
75247;BME280;63844;50.042;19.224;2022-10-30T06:20:25;99550.60;;;8.60;85.25
75247;BME280;63844;50.042;19.224;2022-10-30T06:22:56;99549.77;;;8.62;84.62
75247;BME280;63844;50.042;19.224;2022-10-30T06:25:24;99544.38;;;8.64;84.65
75247;BME280;63844;50.042;19.224;2022-10-30T06:27:50;99549.02;;;8.67;85.01
75247;BME280;63844;50.042;19.224;2022-10-30T06:30:18;99551.21;;;8.72;84.79
75247;BME280;63844;50.042;19.224;2022-10-30T06:32:44;99549.45;;;8.80;84.73
75247;BME280;63844;50.042;19.224;2022-10-30T06:35:11;99550.37;;;8.86;84.69
75247;BME280;63844;50.042;19.224;2022-10-30T06:37:44;99550.14;;;8.94;85.07
75247;BME280;63844;50.042;19.224;2022-10-30T06:40:10;99553.52;;;9.04;85.10
75247;BME280;63844;50.042;19.224;2022-10-30T06:42:48;99546.26;;;9.14;85.25
75247;BME280;63844;50.042;19.224;2022-10-30T06:45:16;99550.79;;;9.19;84.93
75247;BME280;63844;50.042;19.224;2022-10-30T06:47:43;99553.66;;;9.26;84.91
75247;BME280;63844;50.042;19.224;2022-10-30T06:50:16;99549.91;;;9.37;85.06
75247;BME280;63844;50.042;19.224;2022-10-30T06:52:43;99553.15;;;9.42;85.48
75247;BME280;63844;50.042;19.224;2022-10-30T06:55:10;99557.99;;;9.51;85.91
75247;BME280;63844;50.042;19.224;2022-10-30T06:57:37;99556.80;;;9.60;84.81
75247;BME280;63844;50.042;19.224;2022-10-30T07:00:05;99555.99;;;9.75;85.79
75247;BME280;63844;50.042;19.224;2022-10-30T07:02:33;99556.42;;;9.94;88.62
75247;BME280;63844;50.042;19.224;2022-10-30T07:04:59;99554.56;;;10.08;87.58
75247;BME280;63844;50.042;19.224;2022-10-30T07:07:26;99553.10;;;10.25;89.09
75247;BME280;63844;50.042;19.224;2022-10-30T07:09:52;99546.91;;;10.38;88.89
75247;BME280;63844;50.042;19.224;2022-10-30T07:12:18;99546.70;;;10.51;88.24
75247;BME280;63844;50.042;19.224;2022-10-30T07:14:44;99546.52;;;10.64;88.83
75247;BME280;63844;50.042;19.224;2022-10-30T07:17:11;99548.00;;;10.75;88.15
75247;BME280;63844;50.042;19.224;2022-10-30T07:19:37;99551.46;;;10.85;88.31
75247;BME280;63844;50.042;19.224;2022-10-30T07:22:03;99552.30;;;10.95;88.18
75247;BME280;63844;50.042;19.224;2022-10-30T07:24:30;99552.21;;;11.09;87.82
75247;BME280;63844;50.042;19.224;2022-10-30T07:26:56;99552.81;;;11.19;87.43
75247;BME280;63844;50.042;19.224;2022-10-30T07:29:22;99555.36;;;11.30;87.36
75247;BME280;63844;50.042;19.224;2022-10-30T07:31:49;99557.88;;;11.41;86.84
75247;BME280;63844;50.042;19.224;2022-10-30T07:34:15;99563.63;;;11.52;86.63
75247;BME280;63844;50.042;19.224;2022-10-30T07:36:41;99560.52;;;11.62;86.23
75247;BME280;63844;50.042;19.224;2022-10-30T07:39:08;99558.63;;;11.73;86.09
75247;BME280;63844;50.042;19.224;2022-10-30T07:41:34;99558.52;;;11.83;85.93
75247;BME280;63844;50.042;19.224;2022-10-30T07:44:00;99559.34;;;11.93;85.67
75247;BME280;63844;50.042;19.224;2022-10-30T07:46:27;99554.83;;;12.03;85.14
75247;BME280;63844;50.042;19.224;2022-10-30T07:48:53;99560.19;;;12.14;84.55
75247;BME280;63844;50.042;19.224;2022-10-30T07:51:19;99556.20;;;12.23;84.42
75247;BME280;63844;50.042;19.224;2022-10-30T07:53:47;99550.73;;;12.34;84.31
75247;BME280;63844;50.042;19.224;2022-10-30T07:56:13;99545.77;;;12.43;83.75
75247;BME280;63844;50.042;19.224;2022-10-30T07:58:39;99544.11;;;12.54;83.18
75247;BME280;63844;50.042;19.224;2022-10-30T08:01:05;99540.93;;;12.64;83.26
75247;BME280;63844;50.042;19.224;2022-10-30T08:03:32;99536.59;;;12.76;82.92
75247;BME280;63844;50.042;19.224;2022-10-30T08:05:58;99536.13;;;12.86;82.88
75247;BME280;63844;50.042;19.224;2022-10-30T08:08:24;99529.23;;;12.96;82.54
75247;BME280;63844;50.042;19.224;2022-10-30T08:10:51;99528.87;;;13.04;82.02
75247;BME280;63844;50.042;19.224;2022-10-30T08:13:17;99529.89;;;13.13;81.45
75247;BME280;63844;50.042;19.224;2022-10-30T08:15:44;99530.27;;;13.22;81.48
75247;BME280;63844;50.042;19.224;2022-10-30T08:18:10;99531.59;;;13.30;80.51
75247;BME280;63844;50.042;19.224;2022-10-30T08:20:36;99528.71;;;13.41;81.20
75247;BME280;63844;50.042;19.224;2022-10-30T08:23:02;99528.16;;;13.51;80.32
75247;BME280;63844;50.042;19.224;2022-10-30T08:25:29;99531.52;;;13.59;80.42
75247;BME280;63844;50.042;19.224;2022-10-30T08:27:58;99530.63;;;13.65;80.37
75247;BME280;63844;50.042;19.224;2022-10-30T08:30:28;99534.17;;;13.67;79.31
75247;BME280;63844;50.042;19.224;2022-10-30T08:32:59;99533.17;;;13.71;80.12
75247;BME280;63844;50.042;19.224;2022-10-30T08:35:27;99532.46;;;13.76;78.76
75247;BME280;63844;50.042;19.224;2022-10-30T08:37:57;99525.33;;;13.82;79.26
75247;BME280;63844;50.042;19.224;2022-10-30T08:40:25;99523.90;;;13.94;80.22
75247;BME280;63844;50.042;19.224;2022-10-30T08:42:54;99523.25;;;13.98;78.65
75247;BME280;63844;50.042;19.224;2022-10-30T08:45:21;99521.00;;;14.07;79.04
75247;BME280;63844;50.042;19.224;2022-10-30T08:47:56;99516.86;;;14.15;78.32
75247;BME280;63844;50.042;19.224;2022-10-30T08:50:23;99511.71;;;14.27;78.37
75247;BME280;63844;50.042;19.224;2022-10-30T08:52:49;99509.42;;;14.34;77.56
75247;BME280;63844;50.042;19.224;2022-10-30T08:55:16;99512.13;;;14.41;77.51
75247;BME280;63844;50.042;19.224;2022-10-30T08:57:42;99512.09;;;14.49;76.99
75247;BME280;63844;50.042;19.224;2022-10-30T09:00:12;99508.90;;;14.56;77.36
75247;BME280;63844;50.042;19.224;2022-10-30T09:02:38;99509.55;;;14.65;76.34
75247;BME280;63844;50.042;19.224;2022-10-30T09:05:06;99504.29;;;14.73;76.05
75247;BME280;63844;50.042;19.224;2022-10-30T09:07:32;99501.14;;;14.84;77.05
75247;BME280;63844;50.042;19.224;2022-10-30T09:09:59;99500.07;;;14.95;76.67
75247;BME280;63844;50.042;19.224;2022-10-30T09:12:25;99497.45;;;15.04;76.22
75247;BME280;63844;50.042;19.224;2022-10-30T09:14:52;99499.74;;;15.09;75.43
75247;BME280;63844;50.042;19.224;2022-10-30T09:17:18;99493.89;;;15.14;74.97
75247;BME280;63844;50.042;19.224;2022-10-30T09:19:45;99488.79;;;15.20;74.72
75247;BME280;63844;50.042;19.224;2022-10-30T09:22:11;99487.65;;;15.23;74.10
75247;BME280;63844;50.042;19.224;2022-10-30T09:24:37;99485.28;;;15.35;74.16
75247;BME280;63844;50.042;19.224;2022-10-30T09:27:05;99483.27;;;15.44;74.05
75247;BME280;63844;50.042;19.224;2022-10-30T09:29:32;99480.05;;;15.54;73.25
75247;BME280;63844;50.042;19.224;2022-10-30T09:31:58;99480.31;;;15.59;74.24
75247;BME280;63844;50.042;19.224;2022-10-30T09:34:25;99483.59;;;15.66;73.31
75247;BME280;63844;50.042;19.224;2022-10-30T09:36:52;99481.11;;;15.73;74.51
75247;BME280;63844;50.042;19.224;2022-10-30T09:39:18;99476.97;;;15.75;72.96
75247;BME280;63844;50.042;19.224;2022-10-30T09:47:24;99475.94;;;16.04;73.60
75247;BME280;63844;50.042;19.224;2022-10-30T09:50:12;99472.60;;;16.12;73.51
75247;BME280;63844;50.042;19.224;2022-10-30T09:52:56;99472.20;;;16.23;72.25
75247;BME280;63844;50.042;19.224;2022-10-30T09:58:57;99471.86;;;16.40;71.14
75247;BME280;63844;50.042;19.224;2022-10-30T10:01:18;99470.83;;;16.47;72.41
75247;BME280;63844;50.042;19.224;2022-10-30T10:07:00;99477.05;;;16.66;71.49
75247;BME280;63844;50.042;19.224;2022-10-30T10:09:32;99479.22;;;16.74;71.28
75247;BME280;63844;50.042;19.224;2022-10-30T10:12:05;99481.16;;;16.84;70.56
75247;BME280;63844;50.042;19.224;2022-10-30T10:14:39;99476.59;;;16.89;70.22
75247;BME280;63844;50.042;19.224;2022-10-30T10:17:13;99473.88;;;16.98;70.81
75247;BME280;63844;50.042;19.224;2022-10-30T10:19:47;99470.16;;;17.04;70.01
75247;BME280;63844;50.042;19.224;2022-10-30T10:22:21;99467.96;;;17.09;69.72
75247;BME280;63844;50.042;19.224;2022-10-30T10:24:49;99464.08;;;17.16;69.74
75247;BME280;63844;50.042;19.224;2022-10-30T10:27:46;99465.79;;;17.21;69.35
75247;BME280;63844;50.042;19.224;2022-10-30T10:30:19;99467.22;;;17.25;69.40
75247;BME280;63844;50.042;19.224;2022-10-30T10:33:59;99470.88;;;17.33;68.85
75247;BME280;63844;50.042;19.224;2022-10-30T10:41:50;99461.87;;;17.68;67.82
75247;BME280;63844;50.042;19.224;2022-10-30T10:47:15;99458.31;;;17.87;66.80
75247;BME280;63844;50.042;19.224;2022-10-30T10:49:47;99457.52;;;18.02;66.29
75247;BME280;63844;50.042;19.224;2022-10-30T10:52:35;99457.20;;;18.09;65.15
75247;BME280;63844;50.042;19.224;2022-10-30T10:55:08;99452.77;;;18.19;64.71
75247;BME280;63844;50.042;19.224;2022-10-30T10:57:37;99446.33;;;18.28;64.15
75247;BME280;63844;50.042;19.224;2022-10-30T11:00:12;99447.11;;;18.36;64.02
75247;BME280;63844;50.042;19.224;2022-10-30T11:02:44;99445.85;;;18.44;64.39
75247;BME280;63844;50.042;19.224;2022-10-30T11:05:26;99444.78;;;18.51;64.31
75247;BME280;63844;50.042;19.224;2022-10-30T11:08:00;99443.92;;;18.58;63.50
75247;BME280;63844;50.042;19.224;2022-10-30T11:10:27;99440.44;;;18.67;63.44
75247;BME280;63844;50.042;19.224;2022-10-30T11:12:53;99438.29;;;18.83;64.04
75247;BME280;63844;50.042;19.224;2022-10-30T11:16:02;99435.34;;;18.93;63.68
75247;BME280;63844;50.042;19.224;2022-10-30T11:18:30;99433.96;;;19.00;62.42
75247;BME280;63844;50.042;19.224;2022-10-30T11:21:00;99431.79;;;19.08;62.40
75247;BME280;63844;50.042;19.224;2022-10-30T11:23:40;99432.73;;;19.19;62.47
75247;BME280;63844;50.042;19.224;2022-10-30T11:28:49;99434.15;;;19.31;61.53
75247;BME280;63844;50.042;19.224;2022-10-30T11:31:18;99427.89;;;19.36;61.08
75247;BME280;63844;50.042;19.224;2022-10-30T11:33:45;99427.90;;;19.49;61.52
75247;BME280;63844;50.042;19.224;2022-10-30T11:36:17;99417.09;;;19.61;61.39
75247;BME280;63844;50.042;19.224;2022-10-30T11:38:44;99412.36;;;19.77;61.62
75247;BME280;63844;50.042;19.224;2022-10-30T11:41:12;99412.86;;;19.93;61.84
75247;BME280;63844;50.042;19.224;2022-10-30T11:43:40;99412.60;;;20.16;61.27
75247;BME280;63844;50.042;19.224;2022-10-30T11:46:14;99410.46;;;20.27;60.72
75247;BME280;63844;50.042;19.224;2022-10-30T11:48:43;99411.49;;;20.25;60.46
75247;BME280;63844;50.042;19.224;2022-10-30T11:51:12;99408.62;;;20.38;60.37
75247;BME280;63844;50.042;19.224;2022-10-30T11:53:47;99410.06;;;20.51;59.23
75247;BME280;63844;50.042;19.224;2022-10-30T11:56:18;99409.32;;;20.63;58.93
75247;BME280;63844;50.042;19.224;2022-10-30T11:58:48;99409.40;;;20.52;56.55
75247;BME280;63844;50.042;19.224;2022-10-30T12:01:27;99411.70;;;20.58;57.15
75247;BME280;63844;50.042;19.224;2022-10-30T12:03:55;99417.92;;;20.60;56.60
75247;BME280;63844;50.042;19.224;2022-10-30T12:09:16;99414.64;;;20.46;56.37
75247;BME280;63844;50.042;19.224;2022-10-30T12:11:45;99410.35;;;20.26;56.55
75247;BME280;63844;50.042;19.224;2022-10-30T12:14:22;99410.88;;;20.17;57.26
75247;BME280;63844;50.042;19.224;2022-10-30T12:16:51;99409.11;;;20.10;57.28
75247;BME280;63844;50.042;19.224;2022-10-30T12:19:21;99407.05;;;20.12;57.47
75247;BME280;63844;50.042;19.224;2022-10-30T12:21:52;99406.50;;;20.28;57.80
75247;BME280;63844;50.042;19.224;2022-10-30T12:24:29;99408.21;;;20.35;57.38
75247;BME280;63844;50.042;19.224;2022-10-30T12:27:01;99408.95;;;20.47;56.99
75247;BME280;63844;50.042;19.224;2022-10-30T12:29:38;99407.70;;;20.63;56.24
75247;BME280;63844;50.042;19.224;2022-10-30T12:32:10;99404.83;;;20.77;56.69
75247;BME280;63844;50.042;19.224;2022-10-30T12:34:56;99400.91;;;20.79;56.38
75247;BME280;63844;50.042;19.224;2022-10-30T12:37:28;99401.95;;;20.74;56.94
75247;BME280;63844;50.042;19.224;2022-10-30T12:40:03;99400.48;;;20.76;55.99
75247;BME280;63844;50.042;19.224;2022-10-30T12:45:43;99399.64;;;21.05;55.65
75247;BME280;63844;50.042;19.224;2022-10-30T12:48:31;99398.02;;;21.12;55.38
75247;BME280;63844;50.042;19.224;2022-10-30T12:51:16;99394.61;;;21.17;54.30
75247;BME280;63844;50.042;19.224;2022-10-30T12:53:52;99390.03;;;21.27;55.10
75247;BME280;63844;50.042;19.224;2022-10-30T12:56:27;99389.98;;;21.43;54.01
75247;BME280;63844;50.042;19.224;2022-10-30T12:59:12;99388.41;;;21.51;54.21
75247;BME280;63844;50.042;19.224;2022-10-30T13:01:50;99386.00;;;21.57;54.06
75247;BME280;63844;50.042;19.224;2022-10-30T13:04:21;99385.73;;;21.60;53.27
75247;BME280;63844;50.042;19.224;2022-10-30T13:06:54;99385.69;;;21.71;53.01
75247;BME280;63844;50.042;19.224;2022-10-30T13:09:26;99382.73;;;21.84;53.32
75247;BME280;63844;50.042;19.224;2022-10-30T13:12:02;99382.65;;;21.90;52.56
75247;BME280;63844;50.042;19.224;2022-10-30T13:14:38;99379.71;;;21.94;52.67
75247;BME280;63844;50.042;19.224;2022-10-30T13:17:10;99379.86;;;21.99;52.39
75247;BME280;63844;50.042;19.224;2022-10-30T13:19:39;99376.10;;;22.06;52.49
75247;BME280;63844;50.042;19.224;2022-10-30T13:22:24;99376.73;;;22.08;52.57
75247;BME280;63844;50.042;19.224;2022-10-30T13:25:18;99377.84;;;22.13;53.41
75247;BME280;63844;50.042;19.224;2022-10-30T13:27:52;99371.88;;;22.06;51.74
75247;BME280;63844;50.042;19.224;2022-10-30T13:30:22;99372.61;;;22.09;51.55
75247;BME280;63844;50.042;19.224;2022-10-30T13:32:59;99369.08;;;22.12;52.36
75247;BME280;63844;50.042;19.224;2022-10-30T13:41:28;99369.33;;;21.68;53.30
75247;BME280;63844;50.042;19.224;2022-10-30T13:44:17;99370.30;;;21.78;53.44
75247;BME280;63844;50.042;19.224;2022-10-30T13:52:53;99368.42;;;21.73;53.79